Terminal Aerodrome Forecast
Issued by NWS

Home | Current Version | Previous Version | Text Only | Print | Product List | Glossary On
Versions: 1 2 3 4 5 6 7 8 9 10 11 12 13
000
FTUS44 KLZK 311400 AAA
TAFHOT
TAF AMD
KHOT 311403Z 3114/0112 11006KT P6SM VCSH SCT020 OVC040
      TEMPO 3114/3118 3SM -SHRA BR OVC015
     FM311800 09007KT 5SM -SHRA BR OVC025
     FM010100 09003KT P6SM OVC040
      TEMPO 0108/0112 3SM BR OVC025=

USA.gov is the U.S. government's official web portal to all federal, state and local government web resources and services.